createdAt,value
2023-04-16T00:01:36.845Z,50.13
2023-04-16T00:04:03.795Z,50.37
2023-04-16T00:06:30.648Z,47.03
2023-04-16T00:08:57.189Z,44.43
2023-04-16T00:11:24.073Z,39.90
2023-04-16T00:13:50.678Z,45.83
2023-04-16T00:16:17.371Z,34.80
2023-04-16T00:18:44.033Z,43.60
2023-04-16T00:21:10.587Z,45.87
2023-04-16T00:23:37.934Z,44.37
2023-04-16T00:26:04.868Z,48.40
2023-04-16T00:28:31.422Z,41.10
2023-04-16T00:30:58.309Z,48.17
2023-04-16T00:33:25.009Z,38.97
2023-04-16T00:35:51.732Z,57.73
2023-04-16T00:38:18.405Z,40.50
2023-04-16T00:40:45.169Z,43.30
2023-04-16T00:43:11.601Z,39.20
2023-04-16T00:45:38.287Z,45.70
2023-04-16T00:48:05.487Z,44.57
2023-04-16T00:50:33.173Z,37.10
2023-04-16T00:53:00.444Z,59.03
2023-04-16T00:55:27.040Z,33.60
2023-04-16T00:57:53.779Z,46.57
2023-04-16T01:00:20.852Z,41.47
2023-04-16T01:02:47.669Z,62.20
2023-04-16T01:05:14.518Z,42.30
2023-04-16T01:07:41.007Z,50.27
2023-04-16T01:10:07.730Z,49.73
2023-04-16T01:12:34.285Z,43.70
2023-04-16T01:15:00.820Z,40.87
2023-04-16T01:17:27.426Z,42.57
2023-04-16T01:19:53.970Z,53.40
2023-04-16T01:22:20.750Z,42.20
2023-04-16T01:24:47.240Z,45.13
2023-04-16T01:27:13.785Z,51.60
2023-04-16T01:29:40.319Z,42.33
2023-04-16T01:32:07.273Z,44.40
2023-04-16T01:34:36.758Z,60.30
2023-04-16T01:37:03.889Z,40.20
2023-04-16T01:39:30.416Z,41.23
2023-04-16T01:41:57.797Z,53.90
2023-04-16T01:44:25.502Z,46.67
2023-04-16T01:46:52.222Z,44.93
2023-04-16T01:49:19.142Z,48.40
2023-04-16T01:51:45.780Z,51.20
2023-04-16T01:54:12.410Z,40.47
2023-04-16T01:56:39.581Z,39.80
2023-04-16T01:59:06.174Z,57.03
2023-04-16T02:01:38.238Z,55.27
2023-04-16T02:04:05.387Z,46.27
2023-04-16T02:06:32.141Z,42.93
2023-04-16T02:08:58.703Z,67.23
2023-04-16T02:11:26.316Z,60.43
2023-04-16T02:13:53.297Z,53.13
2023-04-16T02:16:20.402Z,76.53
2023-04-16T02:18:52.705Z,64.97
2023-04-16T02:21:21.437Z,61.33
2023-04-16T02:23:51.531Z,56.67
2023-04-16T02:26:21.508Z,56.37
2023-04-16T02:28:49.120Z,63.60
2023-04-16T02:31:19.331Z,54.13
2023-04-16T02:33:46.048Z,54.17
2023-04-16T02:36:12.871Z,63.10
2023-04-16T02:38:39.648Z,60.20
2023-04-16T02:41:06.690Z,72.23
2023-04-16T02:43:34.062Z,59.13
2023-04-16T02:46:01.801Z,59.00
2023-04-16T02:48:28.384Z,78.83
2023-04-16T02:50:54.956Z,68.63
2023-04-16T02:53:21.733Z,75.00
2023-04-16T02:55:52.840Z,75.97
2023-04-16T02:58:24.355Z,66.73
2023-04-16T03:00:51.695Z,84.00
2023-04-16T03:03:18.185Z,86.13
2023-04-16T03:05:44.781Z,75.70
2023-04-16T03:08:11.455Z,101.50
2023-04-16T03:10:38.010Z,80.77
2023-04-16T03:13:04.607Z,101.83
2023-04-16T03:15:31.437Z,97.93
2023-04-16T03:17:58.099Z,81.30
2023-04-16T03:20:24.962Z,102.37
2023-04-16T03:22:52.681Z,77.20
2023-04-16T03:25:19.504Z,102.40
2023-04-16T03:27:46.233Z,94.93
2023-04-16T03:30:14.073Z,92.43
2023-04-16T03:32:41.567Z,92.73
2023-04-16T03:35:08.951Z,116.70
2023-04-16T03:37:37.301Z,111.10
2023-04-16T03:40:06.293Z,94.57
2023-04-16T03:42:32.739Z,118.77
2023-04-16T03:44:59.496Z,92.20
2023-04-16T03:47:26.565Z,117.90
2023-04-16T03:49:56.716Z,132.13
2023-04-16T03:52:23.461Z,141.87
2023-04-16T03:54:50.842Z,120.67
2023-04-16T03:57:26.500Z,137.60
2023-04-16T03:59:56.982Z,141.93
2023-04-16T04:02:26.554Z,147.70
2023-04-16T04:04:53.266Z,184.67
2023-04-16T04:07:19.888Z,150.50
2023-04-16T04:09:46.378Z,148.50
2023-04-16T04:12:13.554Z,181.23
2023-04-16T04:14:41.793Z,178.03
2023-04-16T04:17:08.838Z,194.83
2023-04-16T04:19:35.320Z,183.57
2023-04-16T04:22:02.634Z,157.77
2023-04-16T04:24:29.479Z,200.50
2023-04-16T04:26:57.445Z,240.00
2023-04-16T04:29:24.044Z,223.70
2023-04-16T04:31:50.850Z,244.67
2023-04-16T04:34:17.456Z,240.23
2023-04-16T04:36:44.602Z,242.07
2023-04-16T04:39:13.147Z,258.57
2023-04-16T04:41:42.497Z,212.40
2023-04-16T04:44:09.041Z,276.93
2023-04-16T04:46:35.752Z,169.90
2023-04-16T04:49:02.319Z,261.17
2023-04-16T04:51:28.881Z,215.73
2023-04-16T04:53:55.619Z,264.10
2023-04-16T04:56:22.140Z,245.27
2023-04-16T04:58:49.956Z,195.00
2023-04-16T05:01:18.673Z,192.00
2023-04-16T05:03:45.379Z,217.33
2023-04-16T05:06:12.307Z,223.80
2023-04-16T05:08:38.816Z,218.13
2023-04-16T05:11:05.309Z,166.17
2023-04-16T05:13:31.862Z,165.03
2023-04-16T05:15:58.482Z,183.50
2023-04-16T05:18:25.083Z,188.37
2023-04-16T05:20:51.783Z,275.53
2023-04-16T05:23:18.324Z,192.63
2023-04-16T05:25:44.945Z,198.47
2023-04-16T05:28:11.423Z,187.63
2023-04-16T05:30:38.168Z,165.97
2023-04-16T05:33:04.904Z,206.57
2023-04-16T05:35:31.459Z,189.93
2023-04-16T05:37:57.865Z,265.87
2023-04-16T05:40:24.279Z,188.57
2023-04-16T05:42:50.900Z,169.10
2023-04-16T05:45:17.343Z,165.83
2023-04-16T05:47:44.080Z,151.77
2023-04-16T05:50:11.158Z,162.07
2023-04-16T05:52:38.271Z,156.30
2023-04-16T05:55:05.281Z,152.33
2023-04-16T05:57:31.788Z,118.60
2023-04-16T05:59:58.250Z,125.37
2023-04-16T06:02:24.802Z,131.17
2023-04-16T06:04:51.380Z,168.73
2023-04-16T06:07:17.879Z,136.27
2023-04-16T06:09:44.776Z,128.60
2023-04-16T06:12:11.735Z,130.47
2023-04-16T06:14:38.301Z,146.10
2023-04-16T06:17:04.970Z,131.53
2023-04-16T06:19:31.419Z,141.77
2023-04-16T06:21:57.943Z,133.83
2023-04-16T06:24:24.702Z,160.97
2023-04-16T06:26:51.273Z,154.70
2023-04-16T06:29:17.841Z,138.20
2023-04-16T06:31:44.802Z,146.43
2023-04-16T06:34:11.382Z,160.77
2023-04-16T06:36:37.966Z,130.63
2023-04-16T06:39:05.051Z,131.30
2023-04-16T06:41:31.661Z,132.43
2023-04-16T06:43:58.408Z,132.53
2023-04-16T06:46:25.136Z,130.63
2023-04-16T06:48:51.773Z,119.57
2023-04-16T06:51:18.332Z,116.73
2023-04-16T06:53:44.918Z,96.23
2023-04-16T06:56:11.472Z,101.23
2023-04-16T06:58:37.978Z,121.07
2023-04-16T07:01:04.903Z,87.03
2023-04-16T07:03:31.677Z,93.97
2023-04-16T07:05:58.607Z,98.67
2023-04-16T07:08:25.116Z,103.00
2023-04-16T07:10:53.799Z,140.60
2023-04-16T07:13:20.775Z,135.90
2023-04-16T07:15:47.843Z,156.97
2023-04-16T07:18:14.556Z,113.20
2023-04-16T07:20:41.139Z,149.40
2023-04-16T07:23:07.846Z,167.50
2023-04-16T07:25:34.446Z,137.73
2023-04-16T07:28:01.714Z,147.93
2023-04-16T07:30:33.967Z,142.70
2023-04-16T07:33:01.477Z,121.73
2023-04-16T07:35:28.319Z,126.20
2023-04-16T07:37:54.981Z,142.30
2023-04-16T07:40:21.763Z,132.57
2023-04-16T07:42:48.534Z,126.43
2023-04-16T07:45:16.756Z,119.47
2023-04-16T07:47:43.490Z,128.70
2023-04-16T07:50:10.362Z,106.23
2023-04-16T07:52:38.916Z,112.20
2023-04-16T07:55:05.874Z,106.90
2023-04-16T07:57:32.470Z,115.47
2023-04-16T07:59:59.167Z,109.43
2023-04-16T08:02:26.625Z,123.57
2023-04-16T08:04:53.374Z,90.87
2023-04-16T08:07:20.228Z,91.20
2023-04-16T08:09:47.435Z,88.17
2023-04-16T08:12:14.027Z,96.20
2023-04-16T08:14:41.464Z,96.57
2023-04-16T08:17:07.988Z,98.93
2023-04-16T08:19:34.634Z,109.20
2023-04-16T08:22:01.265Z,114.90
2023-04-16T08:24:27.917Z,83.40
2023-04-16T08:26:56.992Z,84.47
2023-04-16T08:29:26.852Z,81.27
2023-04-16T08:31:53.845Z,79.17
2023-04-16T08:34:20.838Z,82.00
2023-04-16T08:36:47.564Z,74.63
2023-04-16T08:39:14.196Z,67.60
2023-04-16T08:41:42.362Z,83.20
2023-04-16T08:44:09.565Z,68.80
2023-04-16T08:46:37.335Z,69.20
2023-04-16T08:49:07.634Z,66.73
2023-04-16T08:51:35.125Z,65.50
2023-04-16T08:54:06.448Z,69.20
2023-04-16T08:56:36.410Z,67.17
2023-04-16T08:59:05.377Z,75.87
2023-04-16T09:01:35.858Z,71.80
2023-04-16T09:04:03.016Z,65.90
2023-04-16T09:06:29.827Z,68.03
2023-04-16T09:08:58.120Z,70.63
2023-04-16T09:11:25.605Z,59.53
2023-04-16T09:13:52.289Z,75.73
2023-04-16T09:16:20.727Z,50.80
2023-04-16T09:18:47.882Z,55.87
2023-04-16T09:21:15.953Z,65.20
2023-04-16T09:23:43.409Z,66.07
2023-04-16T09:26:09.990Z,69.33
2023-04-16T09:28:43.651Z,81.07
2023-04-16T09:31:17.450Z,67.03
2023-04-16T09:33:44.815Z,81.00
2023-04-16T09:36:11.430Z,73.40
2023-04-16T09:38:53.404Z,61.77
2023-04-16T09:41:28.405Z,65.83
2023-04-16T09:43:56.395Z,67.73
2023-04-16T09:46:23.734Z,66.83
2023-04-16T09:48:51.138Z,56.23
2023-04-16T09:51:17.769Z,53.50
2023-04-16T09:53:44.378Z,62.07
2023-04-16T09:56:11.881Z,51.70
2023-04-16T09:58:38.713Z,57.30
2023-04-16T10:01:06.919Z,53.90
2023-04-16T10:03:34.513Z,52.50
2023-04-16T10:06:06.906Z,67.17
2023-04-16T10:08:33.478Z,54.37
2023-04-16T10:11:00.339Z,55.50
2023-04-16T10:13:31.223Z,45.00
2023-04-16T10:15:58.705Z,51.20
2023-04-16T10:18:25.364Z,54.27
2023-04-16T10:20:51.958Z,61.43
2023-04-16T10:23:19.806Z,59.13
2023-04-16T10:25:47.674Z,69.83
2023-04-16T10:28:14.927Z,56.93
2023-04-16T10:30:42.371Z,67.13
2023-04-16T10:33:09.580Z,61.83
2023-04-16T10:35:39.266Z,67.03
2023-04-16T10:38:25.610Z,57.53
2023-04-16T10:41:18.690Z,67.60
2023-04-16T10:43:49.757Z,65.40
2023-04-16T10:46:19.524Z,70.20
2023-04-16T10:48:50.458Z,71.43
2023-04-16T10:51:24.446Z,61.70
2023-04-16T10:53:50.972Z,70.43
2023-04-16T10:56:24.775Z,62.60
2023-04-16T10:58:52.884Z,63.77
2023-04-16T11:01:26.556Z,55.70
2023-04-16T11:03:53.452Z,54.80
2023-04-16T11:06:27.014Z,54.20
2023-04-16T11:08:55.303Z,44.43
2023-04-16T11:11:22.554Z,47.87
2023-04-16T11:13:49.159Z,45.20
2023-04-16T11:16:16.384Z,46.10
2023-04-16T11:18:50.765Z,50.93
2023-04-16T11:21:18.369Z,44.03
2023-04-16T11:23:52.005Z,50.80
2023-04-16T11:26:26.011Z,51.50
2023-04-16T11:28:53.753Z,44.10
2023-04-16T11:31:20.673Z,45.23
2023-04-16T11:33:47.263Z,36.90
2023-04-16T11:36:13.903Z,37.03
2023-04-16T11:38:43.803Z,39.30
2023-04-16T11:41:11.275Z,36.63
2023-04-16T11:43:38.903Z,42.63
2023-04-16T11:46:20.021Z,34.67
2023-04-16T11:48:51.333Z,34.30
2023-04-16T11:51:18.489Z,33.17
2023-04-16T11:53:46.016Z,36.03
2023-04-16T11:56:12.593Z,32.63
2023-04-16T11:58:39.109Z,34.93
2023-04-16T12:01:10.177Z,39.73
2023-04-16T12:03:46.957Z,41.03
2023-04-16T12:06:14.072Z,45.60
2023-04-16T12:08:40.933Z,46.23
2023-04-16T12:11:07.628Z,38.07
2023-04-16T12:13:40.214Z,29.00
2023-04-16T12:16:16.635Z,29.33
2023-04-16T12:18:58.728Z,36.30
2023-04-16T12:21:25.282Z,31.00
2023-04-16T12:23:53.695Z,32.03
2023-04-16T12:26:20.230Z,35.30
2023-04-16T12:28:46.766Z,34.57
2023-04-16T12:31:14.540Z,27.53
2023-04-16T12:33:42.503Z,33.13
2023-04-16T12:36:18.960Z,28.23
2023-04-16T12:38:45.890Z,31.33
2023-04-16T12:41:12.452Z,32.73
2023-04-16T12:43:39.026Z,32.97
2023-04-16T12:46:06.812Z,28.63
2023-04-16T12:48:34.126Z,33.87
2023-04-16T12:51:00.708Z,31.67
2023-04-16T12:53:27.410Z,31.43
2023-04-16T12:55:54.246Z,29.47
2023-04-16T12:58:20.767Z,30.80
2023-04-16T13:00:47.484Z,30.43
2023-04-16T13:03:14.269Z,29.40
2023-04-16T13:05:40.942Z,35.20
2023-04-16T13:08:07.794Z,35.57
2023-04-16T13:10:35.136Z,30.00
2023-04-16T13:13:01.716Z,34.87
2023-04-16T13:15:28.850Z,35.20
2023-04-16T13:17:55.462Z,34.97
2023-04-16T13:20:24.428Z,45.47
2023-04-16T13:22:51.433Z,44.67
2023-04-16T13:25:18.376Z,50.07
2023-04-16T13:27:44.938Z,45.60
2023-04-16T13:30:11.691Z,43.07
2023-04-16T13:32:38.364Z,41.13
2023-04-16T13:35:05.216Z,39.53
2023-04-16T13:37:31.844Z,43.23
2023-04-16T13:39:58.326Z,37.57
2023-04-16T13:42:24.935Z,50.73
2023-04-16T13:44:54.254Z,46.07
2023-04-16T13:47:20.966Z,39.97
2023-04-16T13:49:47.628Z,47.10
2023-04-16T13:52:14.213Z,51.27
2023-04-16T13:54:41.508Z,49.70
2023-04-16T13:57:19.797Z,43.13
2023-04-16T13:59:46.379Z,47.87
2023-04-16T14:02:13.139Z,55.43
2023-04-16T14:04:39.782Z,52.67
2023-04-16T14:07:06.646Z,55.90
2023-04-16T14:09:33.337Z,41.60
2023-04-16T14:12:00.004Z,57.40
2023-04-16T14:14:26.847Z,55.50
2023-04-16T14:16:57.706Z,52.40
2023-04-16T14:19:24.326Z,50.23
2023-04-16T14:21:51.117Z,52.33
2023-04-16T14:24:17.872Z,56.93
2023-04-16T14:26:44.599Z,50.90
2023-04-16T14:29:11.261Z,53.07
2023-04-16T14:31:38.279Z,50.23
2023-04-16T14:34:04.856Z,47.87
2023-04-16T14:36:31.601Z,48.13
2023-04-16T14:38:58.214Z,45.77
2023-04-16T14:41:25.255Z,52.10
2023-04-16T14:43:51.970Z,43.70
2023-04-16T14:46:19.250Z,49.80
2023-04-16T14:48:46.317Z,54.83
2023-04-16T14:51:12.945Z,52.33
2023-04-16T14:53:39.633Z,49.47
2023-04-16T14:56:06.367Z,55.77
2023-04-16T14:58:32.954Z,47.07
2023-04-16T15:00:59.590Z,51.83
2023-04-16T15:03:26.737Z,49.23
2023-04-16T15:05:56.333Z,50.60
2023-04-16T15:08:23.245Z,56.03
2023-04-16T15:10:50.548Z,63.03
2023-04-16T15:13:17.400Z,52.97
2023-04-16T15:15:44.247Z,53.17
2023-04-16T15:18:10.836Z,68.67
2023-04-16T15:20:37.485Z,59.87
2023-04-16T15:23:04.051Z,71.90
2023-04-16T15:25:30.849Z,67.57
2023-04-16T15:27:57.674Z,74.53
2023-04-16T15:30:24.327Z,79.93
2023-04-16T15:32:50.869Z,59.73
2023-04-16T15:35:17.502Z,64.23
2023-04-16T15:37:44.408Z,69.20
2023-04-16T15:40:11.261Z,68.53
2023-04-16T15:42:38.806Z,66.63
2023-04-16T15:45:05.698Z,80.13
2023-04-16T15:47:32.434Z,78.67
2023-04-16T15:49:59.110Z,62.87
2023-04-16T15:52:26.082Z,72.93
2023-04-16T15:54:52.775Z,63.03
2023-04-16T15:57:19.504Z,83.30
2023-04-16T15:59:53.057Z,71.40
2023-04-16T16:02:31.785Z,85.10
2023-04-16T16:05:00.301Z,85.20
2023-04-16T16:07:29.329Z,89.50
2023-04-16T16:09:56.414Z,82.17
2023-04-16T16:12:23.444Z,81.60
2023-04-16T16:14:50.248Z,73.53
2023-04-16T16:17:17.063Z,99.30
2023-04-16T16:19:45.864Z,83.10
2023-04-16T16:22:13.134Z,99.83
2023-04-16T16:24:39.864Z,100.27
2023-04-16T16:27:06.982Z,91.87
2023-04-16T16:29:33.665Z,85.20
2023-04-16T16:32:00.404Z,98.00
2023-04-16T16:34:27.156Z,92.87
2023-04-16T16:36:53.786Z,92.90
2023-04-16T16:39:24.402Z,91.43
2023-04-16T16:41:52.764Z,91.67
2023-04-16T16:44:19.842Z,88.83
2023-04-16T16:46:47.544Z,84.73
2023-04-16T16:49:14.549Z,81.63
2023-04-16T16:51:41.304Z,77.00
2023-04-16T16:54:07.932Z,82.53
2023-04-16T16:56:34.588Z,80.43
2023-04-16T16:59:02.995Z,75.07
2023-04-16T17:01:31.156Z,85.87
2023-04-16T17:03:58.083Z,80.57
2023-04-16T17:06:25.193Z,59.67
2023-04-16T17:08:52.127Z,74.17
2023-04-16T17:11:19.271Z,99.93
2023-04-16T17:13:46.442Z,76.00
2023-04-16T17:16:15.345Z,76.40
2023-04-16T17:18:43.256Z,64.00
2023-04-16T17:21:09.866Z,61.83
2023-04-16T17:23:36.519Z,70.07
2023-04-16T17:26:03.367Z,64.83
2023-04-16T17:28:30.174Z,66.20
2023-04-16T17:30:57.018Z,60.57
2023-04-16T17:33:23.712Z,63.20
2023-04-16T17:35:50.459Z,78.23
2023-04-16T17:38:17.257Z,68.93
2023-04-16T17:40:43.951Z,64.77
2023-04-16T17:43:10.842Z,70.20
2023-04-16T17:45:37.546Z,63.60
2023-04-16T17:48:04.762Z,64.60
2023-04-16T17:50:31.658Z,59.27
2023-04-16T17:53:03.517Z,63.83
2023-04-16T17:55:32.858Z,67.60
2023-04-16T17:58:00.622Z,72.90
2023-04-16T18:00:27.823Z,51.10
2023-04-16T18:03:00.664Z,55.30
2023-04-16T18:05:27.572Z,59.63
2023-04-16T18:07:55.625Z,66.60
2023-04-16T18:10:22.694Z,178.17
2023-04-16T18:12:49.408Z,124.53
2023-04-16T18:15:17.286Z,118.17
2023-04-16T18:17:43.865Z,126.73
2023-04-16T18:20:12.697Z,121.17
2023-04-16T18:22:39.325Z,74.13
2023-04-16T18:25:06.777Z,74.97
2023-04-16T18:27:33.789Z,88.20
2023-04-16T18:30:00.785Z,70.00
2023-04-16T18:32:30.846Z,57.23
2023-04-16T18:34:57.988Z,71.97
2023-04-16T18:37:24.746Z,66.73
2023-04-16T18:39:51.413Z,62.40
2023-04-16T18:42:18.231Z,55.20
2023-04-16T18:44:51.003Z,65.80
2023-04-16T18:47:18.826Z,59.47
2023-04-16T18:49:45.495Z,66.00
2023-04-16T18:52:12.120Z,74.03
2023-04-16T18:54:38.871Z,67.10
2023-04-16T18:57:11.991Z,60.33
2023-04-16T18:59:38.699Z,70.90
2023-04-16T19:02:05.387Z,68.43
2023-04-16T19:04:32.148Z,66.20
2023-04-16T19:06:59.005Z,67.50
2023-04-16T19:09:27.076Z,63.80
2023-04-16T19:11:53.780Z,69.90
2023-04-16T19:14:24.535Z,64.37
2023-04-16T19:16:51.172Z,75.13
2023-04-16T19:19:17.951Z,62.57
2023-04-16T19:21:44.616Z,64.27
2023-04-16T19:24:11.478Z,69.03
2023-04-16T19:26:38.058Z,62.87
2023-04-16T19:29:04.718Z,62.67
2023-04-16T19:31:31.327Z,61.20
2023-04-16T19:33:57.973Z,48.10
2023-04-16T19:36:26.502Z,61.10
2023-04-16T19:38:53.154Z,58.90
2023-04-16T19:41:19.811Z,62.70
2023-04-16T19:43:46.629Z,62.60
2023-04-16T19:46:14.119Z,59.40
2023-04-16T19:48:41.271Z,69.60
2023-04-16T19:51:07.895Z,64.30
2023-04-16T19:53:35.014Z,64.87
2023-04-16T19:56:01.718Z,56.70
2023-04-16T19:58:28.319Z,61.30
2023-04-16T20:00:55.717Z,67.27
2023-04-16T20:03:22.422Z,84.20
2023-04-16T20:05:49.950Z,77.93
2023-04-16T20:08:16.572Z,70.93
2023-04-16T20:10:43.280Z,68.63
2023-04-16T20:13:12.052Z,69.43
2023-04-16T20:15:38.795Z,71.57
2023-04-16T20:18:06.303Z,78.20
2023-04-16T20:20:34.691Z,81.80
2023-04-16T20:23:01.306Z,75.90
2023-04-16T20:25:29.366Z,86.57
2023-04-16T20:27:56.315Z,75.33
2023-04-16T20:30:28.739Z,89.13
2023-04-16T20:32:56.513Z,74.57
2023-04-16T20:35:23.582Z,71.27
2023-04-16T20:37:50.351Z,68.73
2023-04-16T20:40:17.082Z,80.27
2023-04-16T20:42:46.608Z,86.40
2023-04-16T20:45:13.313Z,74.30
2023-04-16T20:47:53.642Z,73.87
2023-04-16T20:50:25.139Z,56.70
2023-04-16T20:53:44.554Z,65.33
2023-04-16T20:56:17.104Z,67.53
2023-04-16T20:58:44.400Z,67.13
2023-04-16T21:01:12.524Z,78.20
2023-04-16T21:03:43.027Z,72.83
2023-04-16T21:06:20.701Z,64.57
2023-04-16T21:08:55.608Z,79.87
2023-04-16T21:11:23.827Z,71.50
2023-04-16T21:13:50.565Z,76.93
2023-04-16T21:16:17.340Z,74.70
2023-04-16T21:18:44.211Z,71.13
2023-04-16T21:21:10.921Z,76.00
2023-04-16T21:23:37.414Z,83.10
2023-04-16T21:26:04.098Z,70.63
2023-04-16T21:28:30.626Z,71.37
2023-04-16T21:30:57.358Z,66.63
2023-04-16T21:33:24.064Z,69.43
2023-04-16T21:35:51.399Z,64.37
2023-04-16T21:38:18.100Z,64.17
2023-04-16T21:40:45.545Z,58.70
2023-04-16T21:43:12.379Z,69.43
2023-04-16T21:45:39.762Z,60.47
2023-04-16T21:48:06.608Z,58.17
2023-04-16T21:50:33.652Z,67.60
2023-04-16T21:53:00.441Z,62.43
2023-04-16T21:55:27.163Z,65.20
2023-04-16T21:57:53.755Z,71.50
2023-04-16T22:00:21.129Z,64.73
2023-04-16T22:02:47.832Z,62.00
2023-04-16T22:05:14.465Z,73.57
2023-04-16T22:07:41.891Z,62.17
2023-04-16T22:10:08.950Z,59.17
2023-04-16T22:12:39.533Z,63.03
2023-04-16T22:15:07.243Z,68.73
2023-04-16T22:17:36.936Z,64.00
2023-04-16T22:20:08.965Z,71.30
2023-04-16T22:22:35.806Z,74.53
2023-04-16T22:25:03.411Z,72.80
2023-04-16T22:27:30.406Z,65.57
2023-04-16T22:29:57.025Z,83.07
2023-04-16T22:32:23.917Z,73.20
2023-04-16T22:34:50.602Z,73.33
2023-04-16T22:37:17.173Z,77.90
2023-04-16T22:39:45.367Z,95.10
2023-04-16T22:42:12.097Z,95.70
2023-04-16T22:44:38.632Z,85.23
2023-04-16T22:47:05.375Z,88.67
2023-04-16T22:49:35.006Z,88.23
2023-04-16T22:52:01.763Z,77.70
2023-04-16T22:54:31.805Z,89.37
2023-04-16T22:56:58.660Z,91.70
2023-04-16T22:59:25.321Z,95.77
2023-04-16T23:01:52.140Z,90.53
2023-04-16T23:04:18.823Z,102.13
2023-04-16T23:06:46.581Z,85.93
2023-04-16T23:09:13.967Z,97.13
2023-04-16T23:11:40.938Z,91.57
2023-04-16T23:14:08.349Z,87.43
2023-04-16T23:16:35.222Z,102.27
2023-04-16T23:19:01.773Z,98.73
2023-04-16T23:21:28.566Z,96.80
2023-04-16T23:23:56.770Z,92.47
2023-04-16T23:26:23.657Z,94.43
2023-04-16T23:28:50.264Z,86.40
2023-04-16T23:31:16.773Z,104.90
2023-04-16T23:33:43.296Z,92.43
2023-04-16T23:36:10.126Z,105.53
2023-04-16T23:38:36.667Z,115.13
2023-04-16T23:41:03.228Z,96.90
2023-04-16T23:43:29.944Z,108.97
2023-04-16T23:45:56.485Z,101.87
2023-04-16T23:48:22.966Z,86.90
2023-04-16T23:50:49.508Z,104.07
2023-04-16T23:53:16.045Z,89.63
2023-04-16T23:55:42.746Z,109.40
2023-04-16T23:58:09.158Z,102.47
